Aviation Digital Data Service (ADDS)

Output produced by METARs form (0255 UTC 01 March 2015)
found at http://aviationweather.gov/adds/metars/
 
KMHT 282320Z 0100/0124 00000KT P6SM SKC 
     FM011500 20007KT P6SM BKN050 OVC100 
     FM012000 20006KT 3SM -SN BKN025 OVC050